< < Back
Terminal Aerodrome Forecast


Current Version              Previous Versions:   1  2  3  4  5  6  7  8  9  

Terminal Aerodrome Forecast

183
FTUS44 KOHX 120520
TAFCSV
TAF
KCSV 120520Z 1206/1306 11005KT P6SM OVC080
     FM121300 31004KT 5SM -SN OVC015
     FM121700 29007KT P6SM OVC015
     FM130200 30009G16KT P6SM OVC035=

Latest METAR

500
SAUS70 KWBC 120500 RRB
MTRCSV
METAR KCSV 120453Z AUTO 11005KT 10SM OVC085 M02/M08 A3017 RMK AO2 SLP231
T10171078


USA.gov is the U.S. government's official web portal to all federal, state and local government web resources and services.